Time;durP1;ratioP1;P1;durP2;ratioP2;P2;SDS_P1;SDS_P2;PMS_P1;PMS_P2;Temp;Humidity;BMP_temperature;BMP_pressure;BME280_temperature;BME280_humidity;BME280_pressure;Samples;Min_cycle;Max_cycle;Signal;HPM_P1;HPM_P2
2022/09/07 00:01:22;;;;;;;4.97;2.63;;;20.50;76.10;;;;;;5033332;28;20199;-79
2022/09/07 00:03:54;;;;;;;6.35;2.67;;;20.50;76.20;;;;;;5039817;28;20207;-79
2022/09/07 00:06:25;;;;;;;7.17;2.40;;;20.40;76.30;;;;;;5032572;28;20274;-79
2022/09/07 00:08:53;;;;;;;6.35;2.45;;;20.40;76.60;;;;;;5033877;28;20211;-78
2022/09/07 00:11:22;;;;;;;5.65;2.42;;;20.40;76.50;;;;;;5031286;28;20871;-78
2022/09/07 00:13:50;;;;;;;4.70;2.57;;;20.30;76.50;;;;;;5033837;28;20627;-79
2022/09/07 00:16:21;;;;;;;4.43;2.63;;;20.30;76.60;;;;;;5032318;28;20202;-79
2022/09/07 00:18:50;;;;;;;5.90;2.55;;;20.30;76.80;;;;;;5032426;28;20199;-78
2022/09/07 00:21:19;;;;;;;6.20;2.55;;;20.20;76.80;;;;;;5035039;28;20195;-79
2022/09/07 00:23:50;;;;;;;5.73;2.50;;;20.20;76.90;;;;;;5038065;28;20207;-81
2022/09/07 00:26:20;;;;;;;6.50;3.00;;;20.20;76.90;;;;;;5043680;28;20195;-79
2022/09/07 00:28:49;;;;;;;8.47;2.50;;;20.20;77.10;;;;;;5042840;28;20196;-78
2022/09/07 00:31:19;;;;;;;7.78;2.83;;;20.20;77.20;;;;;;5039725;28;20191;-77
2022/09/07 00:33:49;;;;;;;6.90;3.10;;;20.10;77.20;;;;;;5034664;28;20447;-80
2022/09/07 00:36:19;;;;;;;8.17;3.40;;;20.10;77.30;;;;;;5038053;28;20229;-78
2022/09/07 00:38:49;;;;;;;7.20;3.27;;;20.10;77.40;;;;;;5035256;28;20233;-78
2022/09/07 00:41:19;;;;;;;16.00;4.13;;;20.10;77.60;;;;;;5038080;28;20202;-79
2022/09/07 00:43:49;;;;;;;8.20;4.27;;;20.00;77.80;;;;;;5035837;28;20203;-80
2022/09/07 00:46:20;;;;;;;6.77;4.27;;;20.00;78.00;;;;;;5039346;28;20195;-81
2022/09/07 00:48:53;;;;;;;9.67;5.40;;;19.90;78.10;;;;;;5034956;28;20565;-80
2022/09/07 00:51:27;;;;;;;8.37;4.53;;;19.90;78.40;;;;;;5038482;28;20866;-80
2022/09/07 00:54:01;;;;;;;10.27;4.93;;;19.90;78.60;;;;;;5040135;28;20195;-81
2022/09/07 00:56:34;;;;;;;8.47;4.93;;;19.90;78.70;;;;;;5037769;28;20195;-78
2022/09/07 00:59:04;;;;;;;7.83;4.80;;;19.80;78.80;;;;;;5040801;28;20203;-80
2022/09/07 01:01:33;;;;;;;8.17;4.70;;;19.80;79.00;;;;;;5036013;28;20196;-79
2022/09/07 01:04:03;;;;;;;8.80;4.83;;;19.80;79.70;;;;;;5035158;28;20874;-79
2022/09/07 01:06:35;;;;;;;10.43;5.27;;;19.70;79.30;;;;;;5038736;28;20203;-79
2022/09/07 01:09:09;;;;;;;7.80;4.60;;;19.70;79.40;;;;;;5035874;28;20207;-79
2022/09/07 01:11:38;;;;;;;10.13;5.33;;;19.70;79.70;;;;;;5031249;28;20282;-79
2022/09/07 01:14:09;;;;;;;10.00;5.47;;;19.70;79.90;;;;;;5034037;28;20256;-77
2022/09/07 01:16:57;;;;;;;8.83;5.50;;;19.60;80.00;;;;;;5040133;28;20199;-79
2022/09/07 01:19:49;;;;;;;11.73;5.77;;;19.60;80.10;;;;;;5035863;28;20227;-78
2022/09/07 01:22:39;;;;;;;8.70;4.80;;;19.60;80.30;;;;;;5030845;28;20195;-80
2022/09/07 01:25:10;;;;;;;7.60;5.30;;;19.60;80.50;;;;;;5034904;28;20203;-80
2022/09/07 01:28:03;;;;;;;10.03;5.23;;;19.60;80.50;;;;;;5033672;28;20204;-79
2022/09/07 01:30:34;;;;;;;11.73;5.47;;;19.50;80.50;;;;;;5029502;28;20213;-80
2022/09/07 01:33:21;;;;;;;10.27;5.50;;;19.50;80.70;;;;;;5029603;28;20287;-78
2022/09/07 01:35:58;;;;;;;12.17;5.50;;;19.50;80.80;;;;;;5031796;28;20206;-80
2022/09/07 01:38:31;;;;;;;8.90;4.93;;;19.50;81.00;;;;;;5026862;28;20233;-79
2022/09/07 01:41:04;;;;;;;11.93;5.53;;;19.40;81.10;;;;;;5033877;28;20192;-80
2022/09/07 01:43:42;;;;;;;8.67;5.17;;;19.40;81.30;;;;;;5036964;28;20199;-79
2022/09/07 01:46:16;;;;;;;8.40;4.87;;;19.40;81.30;;;;;;5034272;28;20916;-80
2022/09/07 01:48:46;;;;;;;9.93;5.43;;;19.40;81.50;;;;;;5038452;28;20649;-79
2022/09/07 01:51:18;;;;;;;9.00;5.50;;;19.40;81.60;;;;;;5032213;28;20225;-78
2022/09/07 01:53:51;;;;;;;9.47;5.47;;;19.40;81.90;;;;;;5033067;28;20202;-79
2022/09/07 01:56:26;;;;;;;11.03;6.00;;;19.30;81.90;;;;;;5031960;28;20196;-78
2022/09/07 01:58:58;;;;;;;8.17;5.37;;;19.30;82.00;;;;;;5038280;28;20567;-80
2022/09/07 02:01:31;;;;;;;7.90;5.37;;;19.30;82.20;;;;;;5040486;28;20231;-77
2022/09/07 02:04:05;;;;;;;8.93;5.43;;;19.30;82.30;;;;;;5036064;28;20195;-77
2022/09/07 02:06:38;;;;;;;10.93;5.33;;;19.30;82.30;;;;;;5037072;28;20198;-79
2022/09/07 02:09:13;;;;;;;11.20;5.30;;;19.30;82.40;;;;;;5036561;28;20200;-78
2022/09/07 02:11:45;;;;;;;8.20;4.90;;;19.20;82.40;;;;;;5041902;28;20194;-77
2022/09/07 02:14:19;;;;;;;10.77;5.83;;;19.20;82.50;;;;;;5040556;28;20195;-78
2022/09/07 02:16:55;;;;;;;8.63;5.43;;;19.20;82.50;;;;;;5038503;28;20194;-76
2022/09/07 02:19:26;;;;;;;11.67;5.37;;;19.20;82.60;;;;;;5037015;28;20833;-77
2022/09/07 02:22:00;;;;;;;7.57;4.97;;;19.20;82.60;;;;;;5039992;28;20195;-76
2022/09/07 02:24:34;;;;;;;8.97;4.90;;;19.20;82.70;;;;;;5035658;28;20198;-77
2022/09/07 02:27:10;;;;;;;10.40;5.30;;;19.20;82.80;;;;;;5039939;28;20182;-77
2022/09/07 02:29:42;;;;;;;7.60;4.77;;;19.10;82.70;;;;;;5034497;28;20195;-77
2022/09/07 02:32:10;;;;;;;10.07;4.90;;;19.20;82.80;;;;;;5041018;28;20199;-78
2022/09/07 02:34:39;;;;;;;10.60;5.80;;;19.10;83.00;;;;;;5034806;28;20191;-77
2022/09/07 02:37:10;;;;;;;10.47;4.57;;;19.10;83.10;;;;;;5031950;28;20706;-77
2022/09/07 02:39:38;;;;;;;9.53;4.67;;;19.10;83.10;;;;;;5039417;28;20219;-77
2022/09/07 02:42:07;;;;;;;9.83;5.07;;;19.10;83.10;;;;;;5037996;28;20734;-77
2022/09/07 02:44:39;;;;;;;10.57;5.33;;;19.00;83.20;;;;;;5035671;28;20191;-77
2022/09/07 02:47:25;;;;;;;9.80;4.80;;;19.00;83.20;;;;;;5039362;28;20665;-75
2022/09/07 02:50:14;;;;;;;10.37;5.60;;;19.00;83.30;;;;;;5039776;28;20187;-75
2022/09/07 02:52:55;;;;;;;12.33;4.93;;;19.00;83.30;;;;;;5035336;28;20198;-75
2022/09/07 02:55:33;;;;;;;7.67;4.70;;;19.00;83.30;;;;;;5039899;28;20191;-75
2022/09/07 02:58:14;;;;;;;7.93;4.33;;;19.00;83.30;;;;;;5040728;28;20194;-75
2022/09/07 03:00:51;;;;;;;5.37;3.83;;;19.00;83.30;;;;;;5040393;28;20600;-75
2022/09/07 03:03:27;;;;;;;8.40;4.30;;;19.00;83.30;;;;;;5038848;28;20194;-75
2022/09/07 03:06:01;;;;;;;8.63;4.60;;;19.00;83.40;;;;;;5030472;28;20195;-77
2022/09/07 03:08:36;;;;;;;9.03;4.47;;;18.90;83.40;;;;;;5032255;28;20195;-77
2022/09/07 03:11:05;;;;;;;8.57;4.50;;;18.90;83.30;;;;;;5043530;28;20198;-76
2022/09/07 03:13:34;;;;;;;11.37;4.17;;;18.90;83.40;;;;;;5040747;28;20199;-78
2022/09/07 03:16:02;;;;;;;8.80;4.37;;;19.00;83.50;;;;;;5037328;28;20904;-77
2022/09/07 03:18:32;;;;;;;12.73;4.50;;;18.90;83.30;;;;;;5036005;28;20191;-76
2022/09/07 03:21:01;;;;;;;10.43;4.50;;;18.90;83.40;;;;;;5039757;28;20294;-77
2022/09/07 03:23:29;;;;;;;10.33;4.20;;;18.90;83.50;;;;;;5038340;28;20203;-77
2022/09/07 03:25:58;;;;;;;8.30;4.13;;;18.90;83.50;;;;;;5041349;28;20206;-76
2022/09/07 03:28:26;;;;;;;8.77;4.53;;;18.90;83.60;;;;;;5037018;28;20662;-79
2022/09/07 03:30:55;;;;;;;8.77;4.27;;;18.90;83.70;;;;;;5031781;28;20198;-78
2022/09/07 03:33:23;;;;;;;7.07;4.63;;;18.80;83.80;;;;;;5037972;28;20298;-79
2022/09/07 03:36:00;;;;;;;8.90;4.40;;;18.80;83.90;;;;;;5031943;28;20215;-78
2022/09/07 03:38:29;;;;;;;13.30;4.97;;;18.80;84.10;;;;;;5037415;28;20325;-76
2022/09/07 03:41:00;;;;;;;10.47;4.70;;;18.70;84.00;;;;;;5033069;28;20421;-76
2022/09/07 03:43:29;;;;;;;10.00;4.63;;;18.70;84.00;;;;;;5035946;28;20887;-76
2022/09/07 03:45:59;;;;;;;9.17;4.87;;;18.70;84.10;;;;;;5034901;28;20202;-76
2022/09/07 03:48:27;;;;;;;6.73;4.33;;;18.70;84.20;;;;;;5036677;28;20199;-78
2022/09/07 03:50:59;;;;;;;9.07;4.80;;;18.60;84.10;;;;;;5035413;28;20866;-79
2022/09/07 03:53:30;;;;;;;11.50;5.17;;;18.70;84.30;;;;;;5041639;28;20683;-78
2022/09/07 03:55:59;;;;;;;10.43;4.77;;;18.60;84.30;;;;;;5039649;28;20327;-78
2022/09/07 03:58:31;;;;;;;7.00;4.67;;;18.60;84.40;;;;;;5033994;28;20249;-78
2022/09/07 04:01:00;;;;;;;15.33;4.70;;;18.60;84.40;;;;;;5035814;28;20218;-77
2022/09/07 04:03:29;;;;;;;8.60;4.73;;;18.60;84.50;;;;;;5030624;28;20195;-78
2022/09/07 04:06:00;;;;;;;8.13;5.03;;;18.60;84.60;;;;;;5039965;28;20820;-77
2022/09/07 04:08:30;;;;;;;7.80;4.83;;;18.60;84.70;;;;;;5034587;28;20203;-78
2022/09/07 04:11:00;;;;;;;7.37;4.70;;;18.60;84.80;;;;;;5037742;28;20206;-78
2022/09/07 04:13:30;;;;;;;9.53;4.40;;;18.60;85.00;;;;;;5026125;28;20222;-80
2022/09/07 04:15:58;;;;;;;10.00;4.30;;;18.60;85.20;;;;;;5024888;28;20208;-77
2022/09/07 04:18:29;;;;;;;9.10;4.67;;;18.60;85.40;;;;;;5032319;28;20183;-79
2022/09/07 04:21:00;;;;;;;5.77;4.30;;;18.60;85.30;;;;;;5041693;28;20610;-78
2022/09/07 04:23:28;;;;;;;9.83;4.80;;;18.60;85.50;;;;;;5024414;28;20658;-78
2022/09/07 04:25:57;;;;;;;8.60;4.17;;;18.60;85.80;;;;;;5039669;28;20198;-79
2022/09/07 04:28:25;;;;;;;8.57;4.77;;;18.60;85.80;;;;;;5040980;28;20198;-78
2022/09/07 04:30:54;;;;;;;11.17;4.03;;;18.60;85.90;;;;;;5035368;28;20223;-78
2022/09/07 04:33:22;;;;;;;6.40;4.33;;;18.50;85.90;;;;;;5030814;28;20207;-78
2022/09/07 04:35:51;;;;;;;7.27;4.13;;;18.50;86.20;;;;;;5034296;28;20197;-77
2022/09/07 04:38:21;;;;;;;15.23;4.78;;;18.50;86.10;;;;;;5034714;28;20921;-78
2022/09/07 04:40:49;;;;;;;9.60;3.87;;;18.60;87.40;;;;;;5028673;28;20239;-78
2022/09/07 04:43:18;;;;;;;7.53;3.77;;;18.60;87.20;;;;;;5041294;28;20830;-78
2022/09/07 04:45:46;;;;;;;7.27;3.57;;;18.60;87.00;;;;;;5019660;28;20204;-77
2022/09/07 04:48:15;;;;;;;6.53;3.67;;;18.60;87.20;;;;;;5036429;28;20186;-77
2022/09/07 04:50:43;;;;;;;7.80;3.73;;;18.60;86.80;;;;;;5027279;28;20199;-78
2022/09/07 04:53:12;;;;;;;6.10;2.80;;;18.70;86.90;;;;;;5037178;28;20201;-77
2022/09/07 04:55:42;;;;;;;4.90;3.30;;;18.80;86.90;;;;;;5029371;28;20203;-77
2022/09/07 04:58:10;;;;;;;7.77;3.90;;;18.80;86.70;;;;;;5030937;28;20580;-79
2022/09/07 05:00:39;;;;;;;4.67;3.03;;;18.80;87.50;;;;;;5020705;28;20208;-77
2022/09/07 05:03:07;;;;;;;7.83;3.83;;;18.90;86.70;;;;;;5037059;28;20210;-79
2022/09/07 05:05:38;;;;;;;5.63;3.30;;;18.90;86.60;;;;;;5026791;28;20191;-80
2022/09/07 05:08:06;;;;;;;7.63;3.40;;;19.00;86.60;;;;;;5029157;28;20306;-78
2022/09/07 05:10:35;;;;;;;6.30;4.10;;;19.00;86.40;;;;;;5024441;28;20514;-78
2022/09/07 05:13:05;;;;;;;8.43;3.40;;;19.10;86.80;;;;;;5022451;28;20208;-78
2022/09/07 05:15:33;;;;;;;8.20;3.10;;;19.20;86.60;;;;;;5019132;28;20283;-77
2022/09/07 05:18:02;;;;;;;5.87;3.57;;;19.20;86.40;;;;;;5030561;28;20666;-77
2022/09/07 05:20:31;;;;;;;6.57;3.57;;;19.30;86.30;;;;;;5033563;28;20226;-79
2022/09/07 05:22:59;;;;;;;7.83;3.67;;;19.30;85.80;;;;;;5030266;28;20200;-79
2022/09/07 05:25:30;;;;;;;8.17;3.33;;;19.40;85.40;;;;;;5020738;28;20222;-78
2022/09/07 05:27:58;;;;;;;9.30;3.70;;;19.50;85.10;;;;;;5021831;28;20759;-77
2022/09/07 05:30:29;;;;;;;6.30;3.73;;;19.50;84.70;;;;;;5014206;28;20271;-78
2022/09/07 05:33:20;;;;;;;7.67;3.70;;;19.50;84.40;;;;;;5034056;28;20199;-78
2022/09/07 05:35:57;;;;;;;9.30;3.73;;;19.60;84.00;;;;;;5033688;28;20199;-78
2022/09/07 05:38:28;;;;;;;9.13;4.17;;;19.60;83.80;;;;;;5030945;28;20226;-79
2022/09/07 05:40:59;;;;;;;9.45;3.55;;;19.70;83.70;;;;;;5039698;28;20207;-77
2022/09/07 05:43:27;;;;;;;7.20;3.30;;;19.70;83.40;;;;;;5042714;28;20650;-76
2022/09/07 05:45:58;;;;;;;9.40;3.55;;;19.80;83.30;;;;;;5041945;28;20196;-79
2022/09/07 05:48:37;;;;;;;9.95;3.92;;;19.90;83.10;;;;;;5010683;28;20191;-79
2022/09/07 05:51:07;;;;;;;6.55;3.22;;;19.90;83.40;;;;;;5038435;28;20196;-79
2022/09/07 05:53:39;;;;;;;10.23;3.03;;;20.00;82.80;;;;;;5037617;28;20200;-79
2022/09/07 05:56:09;;;;;;;7.03;3.60;;;20.10;82.20;;;;;;5038835;28;20533;-82
2022/09/07 05:58:40;;;;;;;7.07;3.47;;;20.20;82.00;;;;;;5040387;28;20198;-80
2022/09/07 06:01:13;;;;;;;7.80;2.92;;;20.20;81.50;;;;;;5042263;28;20574;-79
2022/09/07 06:03:43;;;;;;;8.50;3.78;;;20.30;81.10;;;;;;5045916;28;20203;-80
2022/09/07 06:06:14;;;;;;;5.35;2.63;;;20.40;80.40;;;;;;5045349;28;20741;-78
2022/09/07 06:08:46;;;;;;;6.20;3.30;;;20.40;79.60;;;;;;5042481;28;20203;-79
2022/09/07 06:11:16;;;;;;;6.43;2.85;;;20.50;79.40;;;;;;5045766;28;20235;-78
2022/09/07 06:13:45;;;;;;;6.30;3.20;;;20.50;79.20;;;;;;5044473;28;20187;-78
2022/09/07 06:16:19;;;;;;;10.52;3.30;;;20.60;79.20;;;;;;5043559;28;20213;-78
2022/09/07 06:18:49;;;;;;;6.47;3.40;;;20.60;79.10;;;;;;5042189;28;20218;-79
2022/09/07 06:21:25;;;;;;;5.55;2.42;;;20.70;78.80;;;;;;5042293;28;20233;-78
2022/09/07 06:23:58;;;;;;;8.23;3.55;;;20.70;78.80;;;;;;5041201;28;20273;-79
2022/09/07 06:26:26;;;;;;;7.15;3.10;;;20.80;78.30;;;;;;5037751;28;20199;-79
2022/09/07 06:28:55;;;;;;;8.80;3.92;;;20.80;77.90;;;;;;5043904;28;20202;-80
2022/09/07 06:31:28;;;;;;;6.20;3.70;;;20.90;78.00;;;;;;5042224;28;20328;-79
2022/09/07 06:33:57;;;;;;;9.88;3.47;;;20.90;77.70;;;;;;5037427;28;20698;-77
2022/09/07 06:36:28;;;;;;;6.72;3.20;;;21.00;77.90;;;;;;5041596;28;20386;-79
2022/09/07 06:39:01;;;;;;;8.10;3.35;;;21.10;78.60;;;;;;5041061;28;20226;-79
2022/09/07 06:41:30;;;;;;;7.10;2.80;;;21.10;77.40;;;;;;5043435;28;20652;-78
2022/09/07 06:44:19;;;;;;;6.15;3.28;;;21.20;77.40;;;;;;5033676;28;20199;-79
2022/09/07 06:46:49;;;;;;;10.07;3.63;;;21.30;77.50;;;;;;5043236;28;20601;-79
2022/09/07 06:49:33;;;;;;;9.95;3.35;;;21.40;77.60;;;;;;5032124;28;20199;-79
2022/09/07 06:52:07;;;;;;;5.47;2.63;;;21.50;77.50;;;;;;5041150;28;20377;-78
2022/09/07 06:54:35;;;;;;;8.90;3.83;;;21.60;77.40;;;;;;5044259;28;20203;-80
2022/09/07 06:57:25;;;;;;;10.38;3.50;;;21.70;77.10;;;;;;5046963;28;20207;-79
2022/09/07 06:59:54;;;;;;;4.75;2.65;;;21.70;76.90;;;;;;5044654;28;20282;-81
2022/09/07 07:02:24;;;;;;;5.88;3.17;;;21.80;76.60;;;;;;5038074;28;20226;-81
2022/09/07 07:04:52;;;;;;;9.57;2.80;;;21.80;76.50;;;;;;5039665;28;20199;-79
2022/09/07 07:07:21;;;;;;;5.57;2.97;;;21.90;76.50;;;;;;5040598;28;20191;-79
2022/09/07 07:09:50;;;;;;;6.55;2.88;;;21.90;76.30;;;;;;5043696;28;20210;-80
2022/09/07 07:12:19;;;;;;;8.20;3.08;;;22.00;76.30;;;;;;5042088;28;20196;-80
2022/09/07 07:14:46;;;;;;;7.03;3.10;;;22.10;75.90;;;;;;5039305;28;20211;-77
2022/09/07 07:17:15;;;;;;;9.48;2.78;;;22.10;75.70;;;;;;5037880;28;20199;-80
2022/09/07 07:19:46;;;;;;;6.70;3.10;;;22.20;75.40;;;;;;5039745;28;20211;-81
2022/09/07 07:22:14;;;;;;;8.23;3.25;;;22.20;75.40;;;;;;5031378;28;20207;-80
2022/09/07 07:25:03;;;;;;;9.55;3.15;;;22.30;75.30;;;;;;5030394;28;20257;-80
2022/09/07 07:27:32;;;;;;;8.55;3.10;;;22.40;75.40;;;;;;5043448;28;20203;-80
2022/09/07 07:30:00;;;;;;;8.57;3.15;;;22.40;75.20;;;;;;5029045;28;20204;-80
2022/09/07 07:32:32;;;;;;;5.65;2.92;;;22.50;74.90;;;;;;5026986;28;20638;-80
2022/09/07 07:35:03;;;;;;;5.75;3.20;;;22.50;74.50;;;;;;5039275;28;20257;-80
2022/09/07 07:37:32;;;;;;;6.13;3.58;;;22.60;74.20;;;;;;5035000;28;20238;-80
2022/09/07 07:40:00;;;;;;;7.38;3.15;;;22.60;74.10;;;;;;5043396;28;20203;-80
2022/09/07 07:42:48;;;;;;;8.25;3.38;;;22.70;74.10;;;;;;5025213;28;20246;-80
2022/09/07 07:45:17;;;;;;;13.30;2.88;;;22.70;73.70;;;;;;5024306;28;20204;-80
2022/09/07 07:48:05;;;;;;;6.35;3.58;;;22.70;73.50;;;;;;5042100;28;20905;-79
2022/09/07 07:50:35;;;;;;;7.68;3.00;;;22.80;72.70;;;;;;5041974;28;20269;-80
2022/09/07 07:53:04;;;;;;;6.90;2.70;;;22.80;72.40;;;;;;5043154;28;20845;-80
2022/09/07 07:55:52;;;;;;;6.53;3.30;;;22.90;72.60;;;;;;5040504;28;20210;-79
2022/09/07 07:58:21;;;;;;;8.82;3.25;;;23.00;72.60;;;;;;5027937;28;20226;-79
2022/09/07 08:00:49;;;;;;;6.30;3.13;;;23.00;72.50;;;;;;5041982;28;20199;-78
2022/09/07 08:03:23;;;;;;;8.52;3.17;;;23.10;72.20;;;;;;5041377;28;20595;-79
2022/09/07 08:05:53;;;;;;;8.52;3.35;;;23.10;72.10;;;;;;5036364;28;20915;-79
2022/09/07 08:08:23;;;;;;;9.23;3.45;;;23.10;71.40;;;;;;5038146;28;20354;-79
2022/09/07 08:10:52;;;;;;;9.15;3.50;;;23.10;71.50;;;;;;5039968;28;20656;-77
2022/09/07 08:13:21;;;;;;;9.32;3.50;;;23.20;70.40;;;;;;5037374;28;20195;-79
2022/09/07 08:15:49;;;;;;;6.22;3.28;;;23.20;70.30;;;;;;5024806;28;20222;-80
2022/09/07 08:18:18;;;;;;;11.23;3.28;;;23.30;70.50;;;;;;5047335;28;20199;-80
2022/09/07 08:20:46;;;;;;;6.65;3.17;;;23.30;70.00;;;;;;5040969;28;20738;-79
2022/09/07 08:23:19;;;;;;;5.47;2.78;;;23.40;70.30;;;;;;5038062;28;20215;-78
2022/09/07 08:25:51;;;;;;;6.10;3.20;;;23.40;70.50;;;;;;5038897;28;20245;-79
2022/09/07 08:28:20;;;;;;;8.30;3.03;;;23.50;70.20;;;;;;5044052;28;20198;-79
2022/09/07 08:30:48;;;;;;;5.03;2.80;;;23.50;69.10;;;;;;5025942;28;20240;-79
2022/09/07 08:33:16;;;;;;;9.55;2.72;;;23.60;69.40;;;;;;5033602;28;20192;-77
2022/09/07 08:35:55;;;;;;;10.60;3.20;;;23.60;69.40;;;;;;5033591;28;20200;-75
2022/09/07 08:38:24;;;;;;;5.95;2.60;;;23.60;68.90;;;;;;5042126;28;20285;-79
2022/09/07 08:40:53;;;;;;;8.25;2.95;;;23.70;68.70;;;;;;5039480;28;20214;-79
2022/09/07 08:43:45;;;;;;;8.35;3.08;;;23.80;69.00;;;;;;5033620;28;20628;-79
2022/09/07 08:46:33;;;;;;;8.18;2.45;;;23.80;69.10;;;;;;5038097;28;20202;-78
2022/09/07 08:49:03;;;;;;;5.28;2.65;;;23.90;69.10;;;;;;5035510;28;20195;-78
2022/09/07 08:51:36;;;;;;;6.05;3.42;;;24.00;69.10;;;;;;5037584;28;20234;-78
2022/09/07 08:54:06;;;;;;;8.77;2.92;;;24.00;68.80;;;;;;5037687;28;20289;-77
2022/09/07 08:56:38;;;;;;;8.73;3.28;;;24.00;68.80;;;;;;5041751;28;20222;-77
2022/09/07 08:59:16;;;;;;;6.90;3.13;;;24.10;69.00;;;;;;5036543;28;20194;-76
2022/09/07 09:01:45;;;;;;;6.32;3.38;;;24.20;68.80;;;;;;5032092;28;20234;-78
2022/09/07 09:04:35;;;;;;;5.43;3.22;;;24.20;68.80;;;;;;5035910;28;20209;-77
2022/09/07 09:07:34;;;;;;;6.88;2.55;;;24.30;68.60;;;;;;5037213;28;20285;-77
2022/09/07 09:10:16;;;;;;;6.57;3.22;;;24.40;68.50;;;;;;5032665;28;20199;-78
2022/09/07 09:13:05;;;;;;;5.95;2.97;;;24.40;68.20;;;;;;5040364;28;20214;-78
2022/09/07 09:15:51;;;;;;;5.88;2.95;;;24.50;68.20;;;;;;5033792;28;20233;-78
2022/09/07 09:18:49;;;;;;;7.25;3.05;;;24.50;68.10;;;;;;5037161;28;20240;-78
2022/09/07 09:21:19;;;;;;;5.15;2.65;;;24.60;67.90;;;;;;5013076;28;20200;-79
2022/09/07 09:23:51;;;;;;;5.05;2.78;;;24.60;67.90;;;;;;5034412;28;20916;-79
2022/09/07 09:26:24;;;;;;;5.40;2.67;;;24.70;67.50;;;;;;5031477;28;20446;-78
2022/09/07 09:28:53;;;;;;;7.15;2.63;;;24.80;66.50;;;;;;5039758;28;20199;-77
2022/09/07 09:31:26;;;;;;;6.05;2.72;;;24.80;65.80;;;;;;5035462;28;20763;-79
2022/09/07 09:34:10;;;;;;;7.05;2.55;;;24.80;65.10;;;;;;5040402;28;20911;-78
2022/09/07 09:36:51;;;;;;;5.50;2.60;;;24.90;64.50;;;;;;5020934;28;20196;-79
2022/09/07 09:39:32;;;;;;;5.32;2.70;;;24.90;64.60;;;;;;5034026;28;20308;-80
2022/09/07 09:42:17;;;;;;;6.60;2.53;;;25.00;64.80;;;;;;5039102;28;20248;-78
2022/09/07 09:44:48;;;;;;;6.22;2.60;;;25.00;64.80;;;;;;5040496;28;20253;-80
2022/09/07 09:47:29;;;;;;;4.43;2.22;;;25.10;65.00;;;;;;5042848;28;20317;-80
2022/09/07 09:50:01;;;;;;;5.90;2.33;;;25.20;65.00;;;;;;5037714;28;20195;-80
2022/09/07 09:52:36;;;;;;;5.97;2.33;;;25.20;65.10;;;;;;5037997;28;20218;-79
2022/09/07 09:57:57;;;;;;;8.13;2.70;;;25.30;63.80;;;;;;5352031;23;20255;-83
2022/09/07 10:00:56;;;;;;;4.40;2.30;;;25.30;64.00;;;;;;5046190;28;20670;-79
2022/09/07 10:03:44;;;;;;;11.20;2.60;;;25.40;63.90;;;;;;5042382;28;20229;-82
2022/09/07 10:06:32;;;;;;;4.25;2.03;;;25.50;64.30;;;;;;5043153;28;20195;-82
2022/09/07 10:09:01;;;;;;;6.40;2.95;;;25.50;63.80;;;;;;5047597;28;20526;-82
2022/09/07 10:11:42;;;;;;;6.22;2.53;;;25.60;62.90;;;;;;5046103;28;20233;-81
2022/09/07 10:14:35;;;;;;;4.03;2.30;;;25.60;63.20;;;;;;5040787;28;20193;-81
2022/09/07 10:17:12;;;;;;;4.13;2.70;;;25.60;63.10;;;;;;5048857;28;20187;-82
2022/09/07 10:19:43;;;;;;;4.07;2.55;;;25.70;61.80;;;;;;5048199;28;20662;-82
2022/09/07 10:22:28;;;;;;;6.47;3.05;;;25.80;61.80;;;;;;5050494;28;20280;-80
2022/09/07 10:24:56;;;;;;;6.35;2.72;;;25.80;62.20;;;;;;5052452;28;20230;-82
2022/09/07 10:27:33;;;;;;;6.40;2.83;;;25.90;62.20;;;;;;5049683;28;20253;-81
2022/09/07 10:30:09;;;;;;;5.47;2.47;;;25.90;62.00;;;;;;5058125;28;20220;-81
2022/09/07 10:32:55;;;;;;;5.13;2.83;;;25.90;62.20;;;;;;5056358;28;20191;-85
2022/09/07 10:35:28;;;;;;;4.93;2.85;;;26.00;61.80;;;;;;5049289;28;20245;-81
2022/09/07 10:38:16;;;;;;;7.85;2.30;;;26.00;60.90;;;;;;5049225;28;20198;-81
2022/09/07 10:40:50;;;;;;;4.22;2.08;;;26.00;60.90;;;;;;5052897;28;20195;-83
2022/09/07 10:43:28;;;;;;;5.65;1.95;;;26.00;61.40;;;;;;5064204;28;20249;-81
2022/09/07 10:46:30;;;;;;;10.05;2.30;;;26.10;62.00;;;;;;5061229;28;20275;-81
2022/09/07 10:49:26;;;;;;;6.82;2.70;;;26.10;61.40;;;;;;5068672;28;20186;-81
2022/09/07 10:52:09;;;;;;;7.13;2.92;;;26.00;61.60;;;;;;5072835;28;20242;-81
2022/09/07 10:54:47;;;;;;;8.88;2.90;;;26.10;61.40;;;;;;5068571;28;20594;-81
2022/09/07 10:57:39;;;;;;;4.35;2.35;;;26.10;61.40;;;;;;5065178;28;20230;-81
2022/09/07 11:00:11;;;;;;;5.40;2.65;;;26.20;61.40;;;;;;5069624;28;20194;-81
2022/09/07 11:02:55;;;;;;;3.83;2.45;;;26.20;61.50;;;;;;5071722;28;20228;-81
2022/09/07 11:06:02;;;;;;;7.97;2.45;;;26.30;61.80;;;;;;5066340;28;20570;-82
2022/09/07 11:08:45;;;;;;;7.38;2.55;;;26.40;62.00;;;;;;5063615;28;20229;-82
2022/09/07 11:11:38;;;;;;;6.25;2.63;;;26.40;61.50;;;;;;5070280;28;21424;-81
2022/09/07 11:14:29;;;;;;;4.63;2.42;;;26.50;61.10;;;;;;5068913;28;20650;-80
2022/09/07 11:17:00;;;;;;;6.25;2.40;;;26.50;60.50;;;;;;5070036;28;20236;-82
2022/09/07 11:19:35;;;;;;;4.07;2.65;;;26.60;60.90;;;;;;5061830;28;20273;-81
2022/09/07 11:22:16;;;;;;;3.80;2.40;;;26.70;60.70;;;;;;5064840;28;20194;-82
2022/09/07 11:24:52;;;;;;;5.63;2.30;;;26.70;59.80;;;;;;5072898;28;20210;-83
2022/09/07 11:27:44;;;;;;;5.07;2.30;;;26.80;59.40;;;;;;5070014;28;20256;-81
2022/09/07 11:30:22;;;;;;;5.35;2.78;;;26.90;59.50;;;;;;5065861;28;20194;-81
2022/09/07 11:33:03;;;;;;;4.70;2.65;;;26.90;59.30;;;;;;5069656;28;20739;-82
2022/09/07 11:35:45;;;;;;;6.07;2.63;;;27.00;59.10;;;;;;5070919;28;20190;-84
2022/09/07 11:38:21;;;;;;;8.40;2.33;;;27.10;59.40;;;;;;5067834;28;20187;-80
2022/09/07 11:40:59;;;;;;;4.47;2.45;;;27.10;59.20;;;;;;5068225;28;20221;-82
2022/09/07 11:43:31;;;;;;;7.43;2.70;;;27.10;58.40;;;;;;5070157;28;20835;-82
2022/09/07 11:46:04;;;;;;;4.47;2.20;;;27.00;58.40;;;;;;5071542;28;20257;-82
2022/09/07 11:48:38;;;;;;;5.53;2.85;;;27.00;58.70;;;;;;5069114;28;20249;-81
2022/09/07 11:51:13;;;;;;;5.70;2.90;;;27.00;59.10;;;;;;5068813;28;20255;-81
2022/09/07 11:53:45;;;;;;;4.93;2.20;;;27.00;59.30;;;;;;5071001;28;20255;-81
2022/09/07 11:56:18;;;;;;;8.30;2.80;;;27.10;59.40;;;;;;5065522;28;20233;-80
2022/09/07 11:59:10;;;;;;;6.55;2.80;;;27.10;59.20;;;;;;5069031;28;20716;-81
2022/09/07 12:01:49;;;;;;;8.00;2.75;;;27.10;58.80;;;;;;5063888;28;20268;-80
2022/09/07 12:04:30;;;;;;;5.05;2.22;;;27.10;58.60;;;;;;5065994;28;20217;-82
2022/09/07 12:07:20;;;;;;;7.15;2.17;;;27.20;58.90;;;;;;5072184;28;20599;-80
2022/09/07 12:10:03;;;;;;;5.35;2.17;;;27.20;58.90;;;;;;5072098;28;20202;-81
2022/09/07 12:12:52;;;;;;;5.80;2.50;;;27.40;59.00;;;;;;5068494;28;20606;-81
2022/09/07 12:15:32;;;;;;;5.45;2.58;;;27.40;58.80;;;;;;5072248;28;20179;-81
2022/09/07 12:18:12;;;;;;;9.75;2.50;;;27.50;59.00;;;;;;5066696;28;20190;-81
2022/09/07 12:20:43;;;;;;;8.23;2.67;;;27.60;59.10;;;;;;5074628;28;20658;-81
2022/09/07 12:23:28;;;;;;;4.53;2.33;;;27.60;58.10;;;;;;5069117;28;20199;-81
2022/09/07 12:26:38;;;;;;;4.75;2.47;;;27.60;56.50;;;;;;5057047;28;20255;-81
2022/09/07 12:29:21;;;;;;;5.32;2.65;;;27.60;56.90;;;;;;5023780;28;20194;-84
2022/09/07 12:31:51;;;;;;;6.45;2.50;;;27.70;57.10;;;;;;5062341;28;20186;-83
2022/09/07 12:34:52;;;;;;;3.45;2.03;;;27.60;56.30;;;;;;5067575;28;20705;-81
2022/09/07 12:37:42;;;;;;;6.78;2.63;;;27.70;56.80;;;;;;5067564;28;20225;-82
2022/09/07 12:41:00;;;;;;;3.65;2.22;;;27.70;57.00;;;;;;5061821;28;20568;-80
2022/09/07 12:44:07;;;;;;;4.13;2.20;;;27.70;57.20;;;;;;5055134;28;20259;-82
2022/09/07 12:46:54;;;;;;;3.08;2.13;;;27.70;57.40;;;;;;5069135;28;20194;-82
2022/09/07 12:50:07;;;;;;;4.05;2.53;;;27.80;57.30;;;;;;5065783;28;20186;-83
2022/09/07 12:52:49;;;;;;;3.80;2.42;;;27.80;55.90;;;;;;5065832;28;20224;-80
2022/09/07 12:55:46;;;;;;;3.30;2.00;;;27.80;56.20;;;;;;5072899;28;20614;-81
2022/09/07 12:58:55;;;;;;;3.95;2.20;;;27.80;55.90;;;;;;5051570;28;20222;-79
2022/09/07 13:01:35;;;;;;;3.10;1.80;;;27.90;56.00;;;;;;5061504;28;20194;-82
2022/09/07 13:04:27;;;;;;;4.75;1.98;;;27.90;56.20;;;;;;5063451;28;20674;-80
2022/09/07 13:07:29;;;;;;;3.88;2.20;;;27.90;56.20;;;;;;5070352;28;20178;-81
2022/09/07 13:09:58;;;;;;;5.65;2.30;;;28.00;56.00;;;;;;5044985;28;20203;-80
2022/09/07 13:12:32;;;;;;;3.40;2.00;;;28.00;56.40;;;;;;5060482;28;20194;-81
2022/09/07 13:15:42;;;;;;;5.35;2.17;;;28.00;56.40;;;;;;5063155;28;20640;-77
2022/09/07 13:18:27;;;;;;;9.63;2.40;;;28.10;56.50;;;;;;5067501;28;20236;-79
2022/09/07 13:21:28;;;;;;;3.30;1.92;;;28.10;56.20;;;;;;5064596;28;20218;-79
2022/09/07 13:24:36;;;;;;;5.88;2.13;;;28.00;55.90;;;;;;5061710;28;20299;-78
2022/09/07 13:27:45;;;;;;;4.75;2.10;;;28.00;55.70;;;;;;5068657;28;20584;-80
2022/09/07 13:30:47;;;;;;;5.00;1.90;;;27.90;56.00;;;;;;5062761;28;20190;-78
2022/09/07 13:33:46;;;;;;;6.85;2.00;;;27.90;56.20;;;;;;5071528;28;20186;-78